createdAt,value
2023-02-11T00:01:28.834Z,18.00
2023-02-11T00:03:59.173Z,17.75
2023-02-11T00:06:29.081Z,17.83
2023-02-11T00:08:58.572Z,16.95
2023-02-11T00:11:30.280Z,19.38
2023-02-11T00:13:58.445Z,18.83
2023-02-11T00:16:26.877Z,17.92
2023-02-11T00:18:54.910Z,17.27
2023-02-11T00:21:24.552Z,18.20
2023-02-11T00:23:52.845Z,31.17
2023-02-11T00:26:23.917Z,23.42
2023-02-11T00:28:53.364Z,21.98
2023-02-11T00:31:22.678Z,20.40
2023-02-11T00:33:51.135Z,18.50
2023-02-11T00:36:20.952Z,17.70
2023-02-11T00:38:49.943Z,17.45
2023-02-11T00:41:18.526Z,16.95
2023-02-11T00:43:47.687Z,16.10
2023-02-11T00:46:16.111Z,18.15
2023-02-11T00:48:44.702Z,17.00
2023-02-11T00:51:13.034Z,16.30
2023-02-11T00:53:41.020Z,16.65
2023-02-11T00:56:08.998Z,16.83
2023-02-11T00:58:36.833Z,17.48
2023-02-11T01:01:06.448Z,16.50
2023-02-11T01:03:34.684Z,16.73
2023-02-11T01:06:02.601Z,15.63
2023-02-11T01:08:30.447Z,15.77
2023-02-11T01:10:59.544Z,15.48
2023-02-11T01:13:27.823Z,16.55
2023-02-11T01:15:56.207Z,17.38
2023-02-11T01:18:25.886Z,17.77
2023-02-11T01:20:54.373Z,17.20
2023-02-11T01:23:22.563Z,17.20
2023-02-11T01:25:50.994Z,18.65
2023-02-11T01:28:20.289Z,18.45
2023-02-11T01:30:48.573Z,18.40
2023-02-11T01:33:16.620Z,17.92
2023-02-11T01:35:46.094Z,18.13
2023-02-11T01:38:18.402Z,17.90
2023-02-11T01:40:50.278Z,16.80
2023-02-11T01:43:18.339Z,17.17
2023-02-11T01:46:13.867Z,17.55
2023-02-11T01:48:45.259Z,16.10
2023-02-11T01:51:17.969Z,17.30
2023-02-11T01:54:05.337Z,18.20
2023-02-11T01:56:53.656Z,17.85
2023-02-11T01:59:25.458Z,19.00
2023-02-11T02:01:59.868Z,20.70
2023-02-11T02:04:33.562Z,19.92
2023-02-11T02:07:07.443Z,17.75
2023-02-11T02:09:40.672Z,18.92
2023-02-11T02:12:08.810Z,18.98
2023-02-11T02:14:39.999Z,18.48
2023-02-11T02:17:08.543Z,16.95
2023-02-11T02:20:23.448Z,16.77
2023-02-11T02:23:18.408Z,16.20
2023-02-11T02:26:19.860Z,15.38
2023-02-11T02:29:25.189Z,15.20
2023-02-11T02:32:24.307Z,13.80
2023-02-11T02:34:59.321Z,15.20
2023-02-11T02:37:34.319Z,15.32
2023-02-11T02:40:09.028Z,14.40
2023-02-11T02:42:37.703Z,14.63
2023-02-11T02:45:07.770Z,15.52
2023-02-11T02:47:36.970Z,14.85
2023-02-11T02:50:05.981Z,14.43
2023-02-11T02:52:40.828Z,14.18
2023-02-11T02:55:19.970Z,14.80
2023-02-11T02:58:12.908Z,16.77
2023-02-11T03:00:48.823Z,15.15
2023-02-11T03:03:35.886Z,16.52
2023-02-11T03:06:09.104Z,15.45
2023-02-11T03:08:43.336Z,14.82
2023-02-11T03:11:12.639Z,15.70
2023-02-11T03:13:41.826Z,15.07
2023-02-11T03:16:14.561Z,15.45
2023-02-11T03:18:50.570Z,16.30
2023-02-11T03:21:21.208Z,15.52
2023-02-11T03:23:53.680Z,15.52
2023-02-11T03:26:26.724Z,15.60
2023-02-11T03:31:34.537Z,14.77
2023-02-11T03:34:08.720Z,16.45
2023-02-11T03:36:45.996Z,15.75
2023-02-11T03:39:15.702Z,16.00
2023-02-11T03:41:44.861Z,16.00
2023-02-11T03:44:16.360Z,16.63
2023-02-11T03:46:49.149Z,16.27
2023-02-11T03:49:21.488Z,17.00
2023-02-11T03:51:52.761Z,15.52
2023-02-11T03:54:25.347Z,15.90
2023-02-11T03:56:55.924Z,16.73
2023-02-11T03:59:23.760Z,16.25
2023-02-11T04:01:51.551Z,18.33
2023-02-11T04:04:20.616Z,16.92
2023-02-11T04:06:48.427Z,18.02
2023-02-11T04:09:16.233Z,16.48
2023-02-11T04:11:43.964Z,17.63
2023-02-11T04:14:11.787Z,16.27
2023-02-11T04:16:39.590Z,15.98
2023-02-11T04:19:07.373Z,16.35
2023-02-11T04:21:36.531Z,16.63
2023-02-11T04:24:04.526Z,15.98
2023-02-11T04:26:32.271Z,14.98
2023-02-11T04:28:59.922Z,15.32
2023-02-11T04:31:27.739Z,14.13
2023-02-11T04:33:55.513Z,14.65
2023-02-11T04:36:23.352Z,15.30
2023-02-11T04:38:52.368Z,15.13
2023-02-11T04:41:20.117Z,14.55
2023-02-11T04:43:47.846Z,16.38
2023-02-11T04:46:15.632Z,14.30
2023-02-11T04:48:43.463Z,14.82
2023-02-11T04:51:11.234Z,13.55
2023-02-11T04:53:38.990Z,13.85
2023-02-11T04:56:08.241Z,15.00
2023-02-11T04:58:36.055Z,13.48
2023-02-11T05:01:07.998Z,13.52
2023-02-11T05:03:35.812Z,13.83
2023-02-11T05:06:03.567Z,14.32
2023-02-11T05:08:31.449Z,12.93
2023-02-11T05:10:59.298Z,13.50
2023-02-11T05:13:28.480Z,13.85
2023-02-11T05:15:56.256Z,14.07
2023-02-11T05:18:24.304Z,13.70
2023-02-11T05:20:51.990Z,14.32
2023-02-11T05:23:19.701Z,14.70
2023-02-11T05:25:47.411Z,14.07
2023-02-11T05:28:15.210Z,15.52
2023-02-11T05:30:44.349Z,13.75
2023-02-11T05:33:12.141Z,15.38
2023-02-11T05:35:39.840Z,15.07
2023-02-11T05:38:07.590Z,14.45
2023-02-11T05:40:35.301Z,14.68
2023-02-11T05:43:03.082Z,15.65
2023-02-11T05:45:31.789Z,14.43
2023-02-11T05:48:01.038Z,15.07
2023-02-11T05:50:28.818Z,14.95
2023-02-11T05:52:56.549Z,14.80
2023-02-11T05:55:24.506Z,14.45
2023-02-11T05:57:52.236Z,13.68
2023-02-11T06:00:20.382Z,14.35
2023-02-11T06:02:48.118Z,15.25
2023-02-11T06:05:17.384Z,14.55
2023-02-11T06:07:45.144Z,14.40
2023-02-11T06:10:13.555Z,15.18
2023-02-11T06:12:41.518Z,14.93
2023-02-11T06:15:09.500Z,15.13
2023-02-11T06:17:37.412Z,15.43
2023-02-11T06:20:07.255Z,15.45
2023-02-11T06:22:36.347Z,16.30
2023-02-11T06:25:04.188Z,14.90
2023-02-11T06:27:31.924Z,15.38
2023-02-11T06:29:59.611Z,16.20
2023-02-11T06:32:45.636Z,16.33
2023-02-11T06:35:14.322Z,15.00
2023-02-11T06:37:43.920Z,15.98
2023-02-11T06:40:12.659Z,15.82
2023-02-11T06:42:40.487Z,15.82
2023-02-11T06:45:11.148Z,16.33
2023-02-11T06:47:39.163Z,15.32
2023-02-11T06:50:09.224Z,16.73
2023-02-11T06:52:36.973Z,16.10
2023-02-11T06:55:06.594Z,15.43
2023-02-11T06:57:34.371Z,15.70
2023-02-11T07:00:02.534Z,16.85
2023-02-11T07:02:30.525Z,16.83
2023-02-11T07:04:58.502Z,17.77
2023-02-11T07:07:26.280Z,17.73
2023-02-11T07:09:54.111Z,16.60
2023-02-11T07:12:23.194Z,17.88
2023-02-11T07:14:50.990Z,17.10
2023-02-11T07:17:18.711Z,17.50
2023-02-11T07:19:46.497Z,17.00
2023-02-11T07:22:14.253Z,18.83
2023-02-11T07:24:42.136Z,17.58
2023-02-11T07:27:09.883Z,17.30
2023-02-11T07:29:39.109Z,17.20
2023-02-11T07:32:07.263Z,17.08
2023-02-11T07:34:35.315Z,16.90
2023-02-11T07:37:03.211Z,18.88
2023-02-11T07:39:31.106Z,19.48
2023-02-11T07:41:58.886Z,18.30
2023-02-11T07:44:26.688Z,17.52
2023-02-11T07:46:55.766Z,19.90
2023-02-11T07:49:23.480Z,17.83
2023-02-11T07:51:51.495Z,16.77
2023-02-11T07:54:19.308Z,17.58
2023-02-11T07:56:47.079Z,17.30
2023-02-11T07:59:14.851Z,17.90
2023-02-11T08:01:42.586Z,18.25
2023-02-11T08:04:11.827Z,17.60
2023-02-11T08:06:43.617Z,17.50
2023-02-11T08:09:16.538Z,16.75
2023-02-11T08:14:12.833Z,15.60
2023-02-11T08:16:41.258Z,16.45
2023-02-11T08:19:13.598Z,16.13
2023-02-11T08:21:41.825Z,18.20
2023-02-11T08:24:09.995Z,16.30
2023-02-11T08:26:38.935Z,26.90
2023-02-11T08:29:09.407Z,22.40
2023-02-11T08:31:39.743Z,19.92
2023-02-11T08:34:08.005Z,17.35
2023-02-11T08:36:38.890Z,16.85
2023-02-11T08:39:18.483Z,16.80
2023-02-11T08:41:48.871Z,18.08
2023-02-11T08:44:17.039Z,16.67
2023-02-11T08:46:45.207Z,21.00
2023-02-11T08:49:13.113Z,18.25
2023-02-11T08:51:42.336Z,17.05
2023-02-11T08:54:10.546Z,19.10
2023-02-11T08:56:39.043Z,18.52
2023-02-11T08:59:09.268Z,18.95
2023-02-11T09:01:37.442Z,17.88
2023-02-11T09:04:05.466Z,16.85
2023-02-11T09:06:33.520Z,14.82
2023-02-11T09:09:02.832Z,15.48
2023-02-11T09:11:33.447Z,15.00
2023-02-11T09:14:01.970Z,15.93
2023-02-11T09:16:33.664Z,15.65
2023-02-11T09:19:03.177Z,15.50
2023-02-11T09:21:31.714Z,15.18
2023-02-11T09:23:59.838Z,15.02
2023-02-11T09:26:31.515Z,15.57
2023-02-11T09:28:59.807Z,15.70
2023-02-11T09:31:29.396Z,15.55
2023-02-11T09:33:59.910Z,15.18
2023-02-11T09:36:30.433Z,15.45
2023-02-11T09:39:00.692Z,15.75
2023-02-11T09:41:46.532Z,15.65
2023-02-11T09:44:21.034Z,14.93
2023-02-11T09:46:55.814Z,15.55
2023-02-11T09:49:32.491Z,15.45
2023-02-11T09:52:05.759Z,15.60
2023-02-11T09:54:40.628Z,15.30
2023-02-11T09:57:26.449Z,14.90
2023-02-11T09:59:56.396Z,15.23
2023-02-11T10:02:29.373Z,16.00
2023-02-11T10:07:46.429Z,15.50
2023-02-11T10:10:35.017Z,14.98
2023-02-11T10:13:21.015Z,15.77
2023-02-11T10:15:57.234Z,14.20
2023-02-11T10:18:46.492Z,14.68
2023-02-11T10:21:21.163Z,16.30
2023-02-11T10:23:53.962Z,15.30
2023-02-11T10:26:22.365Z,15.18
2023-02-11T10:28:55.508Z,15.52
2023-02-11T10:31:27.221Z,16.38
2023-02-11T10:34:00.727Z,15.07
2023-02-11T10:36:31.030Z,15.07
2023-02-11T10:39:00.724Z,15.32
2023-02-11T10:41:34.974Z,16.40
2023-02-11T10:44:07.878Z,16.48
2023-02-11T10:49:05.805Z,16.38
2023-02-11T10:51:35.183Z,15.52
2023-02-11T10:54:19.462Z,15.10
2023-02-11T10:56:52.223Z,16.90
2023-02-11T10:59:28.459Z,15.95
2023-02-11T11:02:00.708Z,17.25
2023-02-11T11:04:38.256Z,16.73
2023-02-11T11:07:16.921Z,15.70
2023-02-11T11:09:48.465Z,17.52
2023-02-11T11:12:31.992Z,17.10
2023-02-11T11:15:03.802Z,19.40
2023-02-11T11:17:31.856Z,15.73
2023-02-11T11:20:20.285Z,17.45
2023-02-11T11:22:49.289Z,15.98
2023-02-11T11:25:25.771Z,15.60
2023-02-11T11:27:57.058Z,15.95
2023-02-11T11:30:32.406Z,15.60
2023-02-11T11:33:01.964Z,15.93
2023-02-11T11:35:33.023Z,16.20
2023-02-11T11:38:03.351Z,15.23
2023-02-11T11:40:32.677Z,17.35
2023-02-11T11:43:20.253Z,15.90
2023-02-11T11:45:59.265Z,14.95
2023-02-11T11:48:32.583Z,13.38
2023-02-11T11:51:03.188Z,13.07
2023-02-11T11:53:39.082Z,13.27
2023-02-11T11:56:11.813Z,12.75
2023-02-11T11:58:39.530Z,13.73
2023-02-11T12:01:23.347Z,13.30
2023-02-11T12:04:19.673Z,15.27
2023-02-11T12:06:57.575Z,14.07
2023-02-11T12:09:37.016Z,13.32
2023-02-11T12:12:29.328Z,12.52
2023-02-11T12:15:11.362Z,13.60
2023-02-11T12:17:56.638Z,12.88
2023-02-11T12:20:33.904Z,12.82
2023-02-11T12:23:16.057Z,12.25
2023-02-11T12:25:52.508Z,12.50
2023-02-11T12:28:32.944Z,12.23
2023-02-11T12:31:16.746Z,12.43
2023-02-11T12:34:06.249Z,12.23
2023-02-11T12:36:48.974Z,11.65
2023-02-11T12:39:32.647Z,11.65
2023-02-11T12:42:42.620Z,12.60
2023-02-11T12:45:22.918Z,11.18
2023-02-11T12:48:04.704Z,11.18
2023-02-11T12:50:46.154Z,10.65
2023-02-11T12:53:31.875Z,11.93
2023-02-11T12:56:05.034Z,11.68
2023-02-11T12:58:44.976Z,12.57
2023-02-11T13:01:20.227Z,11.73
2023-02-11T13:03:53.992Z,11.20
2023-02-11T13:06:30.276Z,12.00
2023-02-11T13:09:02.193Z,12.10
2023-02-11T13:11:34.164Z,12.02
2023-02-11T13:14:05.146Z,11.40
2023-02-11T13:16:39.297Z,12.07
2023-02-11T13:19:19.482Z,12.70
2023-02-11T13:22:04.458Z,12.25
2023-02-11T13:24:44.294Z,12.43
2023-02-11T13:27:26.433Z,13.25
2023-02-11T13:30:21.435Z,13.20
2023-02-11T13:33:20.547Z,12.43
2023-02-11T13:36:13.186Z,13.30
2023-02-11T13:38:51.811Z,13.57
2023-02-11T13:41:24.738Z,15.90
2023-02-11T13:46:30.739Z,14.25
2023-02-11T13:48:59.439Z,13.40
2023-02-11T13:51:38.879Z,14.02
2023-02-11T13:54:09.562Z,14.15
2023-02-11T13:56:39.742Z,12.77
2023-02-11T13:59:42.345Z,13.10
2023-02-11T14:02:42.537Z,11.30
2023-02-11T14:05:48.792Z,10.77
2023-02-11T14:08:43.695Z,10.60
2023-02-11T14:11:52.409Z,11.73
2023-02-11T14:14:25.913Z,12.45
2023-02-11T14:17:30.938Z,12.48
2023-02-11T14:19:59.917Z,12.25
2023-02-11T14:22:30.283Z,13.05
2023-02-11T14:25:00.856Z,11.38
2023-02-11T14:27:43.341Z,12.60
2023-02-11T14:30:27.370Z,11.70
2023-02-11T14:33:18.079Z,12.38
2023-02-11T14:36:00.596Z,12.70
2023-02-11T14:38:36.939Z,12.80
2023-02-11T14:41:09.056Z,11.75
2023-02-11T14:43:43.044Z,11.50
2023-02-11T14:46:11.150Z,11.45
2023-02-11T14:48:44.608Z,10.82
2023-02-11T14:51:16.011Z,11.18
2023-02-11T14:53:47.504Z,10.65
2023-02-11T14:56:22.375Z,12.48
2023-02-11T14:58:52.977Z,12.40
2023-02-11T15:01:30.843Z,12.27
2023-02-11T15:03:59.469Z,13.35
2023-02-11T15:06:31.555Z,13.32
2023-02-11T15:09:02.099Z,19.73
2023-02-11T15:11:32.891Z,17.50
2023-02-11T15:14:09.556Z,23.02
2023-02-11T15:16:43.389Z,18.45
2023-02-11T15:19:21.137Z,13.20
2023-02-11T15:21:51.780Z,12.20
2023-02-11T15:24:25.284Z,11.65
2023-02-11T15:27:00.952Z,12.43
2023-02-11T15:29:37.384Z,12.57
2023-02-11T15:32:07.388Z,13.23
2023-02-11T15:34:35.969Z,13.13
2023-02-11T15:37:04.507Z,11.05
2023-02-11T15:39:35.576Z,13.27
2023-02-11T15:42:21.180Z,12.55
2023-02-11T15:44:56.592Z,12.82
2023-02-11T15:47:30.895Z,11.27
2023-02-11T15:49:59.165Z,11.85
2023-02-11T15:52:28.984Z,13.40
2023-02-11T15:55:00.708Z,13.02
2023-02-11T15:57:29.321Z,11.65
2023-02-11T16:00:04.570Z,13.13
2023-02-11T16:02:34.423Z,12.10
2023-02-11T16:05:05.613Z,12.32
2023-02-11T16:07:44.842Z,13.85
2023-02-11T16:10:25.631Z,13.38
2023-02-11T16:13:18.247Z,12.60
2023-02-11T16:15:55.505Z,12.68
2023-02-11T16:18:38.864Z,12.57
2023-02-11T16:21:14.425Z,12.50
2023-02-11T16:23:43.430Z,13.70
2023-02-11T16:26:22.047Z,12.68
2023-02-11T16:28:50.263Z,12.45
2023-02-11T16:31:20.045Z,13.25
2023-02-11T16:33:47.885Z,13.38
2023-02-11T16:36:18.105Z,13.95
2023-02-11T16:38:45.998Z,16.98
2023-02-11T16:41:14.319Z,18.88
2023-02-11T16:43:42.056Z,21.85
2023-02-11T16:46:13.848Z,21.00
2023-02-11T16:48:43.216Z,21.50
2023-02-11T16:51:13.171Z,21.33
2023-02-11T16:53:41.155Z,18.23
2023-02-11T16:56:15.095Z,18.08
2023-02-11T16:58:42.853Z,18.38
2023-02-11T17:01:13.750Z,18.80
2023-02-11T17:03:43.768Z,17.00
2023-02-11T17:06:13.575Z,23.92
2023-02-11T17:08:42.031Z,31.63
2023-02-11T17:11:09.815Z,31.58
2023-02-11T17:13:39.440Z,35.22
2023-02-11T17:16:07.218Z,30.90
2023-02-11T17:18:36.003Z,29.52
2023-02-11T17:21:07.481Z,32.85
2023-02-11T17:23:35.158Z,30.92
2023-02-11T17:26:02.947Z,27.58
2023-02-11T17:28:30.741Z,22.00
2023-02-11T17:30:58.523Z,18.02
2023-02-11T17:33:26.434Z,17.63
2023-02-11T17:35:54.514Z,16.63
2023-02-11T17:38:23.964Z,18.73
2023-02-11T17:40:58.738Z,13.82
2023-02-11T17:43:26.552Z,13.63
2023-02-11T17:45:54.762Z,13.35
2023-02-11T17:48:22.760Z,12.60
2023-02-11T17:50:50.521Z,13.80
2023-02-11T17:53:18.392Z,12.75
2023-02-11T17:55:47.455Z,15.20
2023-02-11T17:58:15.230Z,16.35
2023-02-11T18:00:43.405Z,19.35
2023-02-11T18:03:11.174Z,16.48
2023-02-11T18:05:39.524Z,15.73
2023-02-11T18:08:08.619Z,16.63
2023-02-11T18:10:36.394Z,28.40
2023-02-11T18:13:05.823Z,22.35
2023-02-11T18:15:34.704Z,15.95
2023-02-11T18:18:02.483Z,13.27
2023-02-11T18:20:30.379Z,14.85
2023-02-11T18:22:58.121Z,15.30
2023-02-11T18:25:25.908Z,16.08
2023-02-11T18:27:53.666Z,14.15
2023-02-11T18:30:24.194Z,12.88
2023-02-11T18:32:54.834Z,13.85
2023-02-11T18:35:22.920Z,14.25
2023-02-11T18:37:50.961Z,15.98
2023-02-11T18:40:19.070Z,17.35
2023-02-11T18:42:47.482Z,17.77
2023-02-11T18:45:15.972Z,17.25
2023-02-11T18:47:45.205Z,17.67
2023-02-11T18:50:15.542Z,16.50
2023-02-11T18:52:43.759Z,15.93
2023-02-11T18:55:11.586Z,15.15
2023-02-11T18:57:39.594Z,16.00
2023-02-11T19:00:10.000Z,16.95
2023-02-11T19:02:37.956Z,17.92
2023-02-11T19:05:07.808Z,18.17
2023-02-11T19:07:35.519Z,18.35
2023-02-11T19:10:03.460Z,20.85
2023-02-11T19:12:33.135Z,18.35
2023-02-11T19:15:01.554Z,30.17
2023-02-11T19:17:29.325Z,32.47
2023-02-11T19:19:57.177Z,26.80
2023-02-11T19:22:26.362Z,27.20
2023-02-11T19:24:54.206Z,25.05
2023-02-11T19:27:21.927Z,14.20
2023-02-11T19:29:49.691Z,18.10
2023-02-11T19:32:17.677Z,20.52
2023-02-11T19:34:45.407Z,21.17
2023-02-11T19:37:13.906Z,18.80
2023-02-11T19:39:43.933Z,20.50
2023-02-11T19:42:12.112Z,18.85
2023-02-11T19:44:40.093Z,19.45
2023-02-11T19:47:07.988Z,21.58
2023-02-11T19:49:35.696Z,24.48
2023-02-11T19:52:03.574Z,22.17
2023-02-11T19:54:31.417Z,22.33
2023-02-11T19:57:00.657Z,21.98
2023-02-11T19:59:28.455Z,18.40
2023-02-11T20:01:57.582Z,17.48
2023-02-11T20:04:25.744Z,16.98
2023-02-11T20:06:53.554Z,17.85
2023-02-11T20:09:21.731Z,17.65
2023-02-11T20:11:50.094Z,19.02
2023-02-11T20:14:19.356Z,19.73
2023-02-11T20:16:49.829Z,20.13
2023-02-11T20:19:19.990Z,20.48
2023-02-11T20:21:48.922Z,20.30
2023-02-11T20:24:17.413Z,20.40
2023-02-11T20:26:46.947Z,18.55
2023-02-11T20:29:15.283Z,18.42
2023-02-11T20:31:44.603Z,18.60
2023-02-11T20:34:12.985Z,21.08
2023-02-11T20:36:41.158Z,21.48
2023-02-11T20:39:08.961Z,18.80
2023-02-11T20:41:40.031Z,19.30
2023-02-11T20:44:11.059Z,20.08
2023-02-11T20:46:40.852Z,20.90
2023-02-11T20:49:12.255Z,19.45
2023-02-11T20:51:40.639Z,17.80
2023-02-11T20:54:12.510Z,18.05
2023-02-11T20:56:40.760Z,17.70
2023-02-11T20:59:08.920Z,17.55
2023-02-11T21:01:40.280Z,18.20
2023-02-11T21:04:12.857Z,21.35
2023-02-11T21:06:43.990Z,22.67
2023-02-11T21:09:14.239Z,20.58
2023-02-11T21:11:42.162Z,20.77
2023-02-11T21:14:10.223Z,19.58
2023-02-11T21:16:38.333Z,20.45
2023-02-11T21:19:07.051Z,21.13
2023-02-11T21:21:38.626Z,20.30
2023-02-11T21:24:07.628Z,23.15
2023-02-11T21:26:36.359Z,22.10
2023-02-11T21:29:04.655Z,21.33
2023-02-11T21:31:34.465Z,21.60
2023-02-11T21:34:02.412Z,20.88
2023-02-11T21:36:30.610Z,20.38
2023-02-11T21:39:01.746Z,19.77
2023-02-11T21:41:30.036Z,18.55
2023-02-11T21:43:58.148Z,17.92
2023-02-11T21:46:26.145Z,17.45
2023-02-11T21:48:54.541Z,16.77
2023-02-11T21:51:24.624Z,16.85
2023-02-11T21:53:54.906Z,15.70
2023-02-11T21:56:26.370Z,15.48
2023-02-11T21:58:56.087Z,14.50
2023-02-11T22:01:26.986Z,15.88
2023-02-11T22:03:54.782Z,14.93
2023-02-11T22:06:27.081Z,15.05
2023-02-11T22:08:55.911Z,14.50
2023-02-11T22:11:25.358Z,14.00
2023-02-11T22:13:54.752Z,14.57
2023-02-11T22:16:23.072Z,13.50
2023-02-11T22:18:51.478Z,15.25
2023-02-11T22:21:22.315Z,14.93
2023-02-11T22:23:51.454Z,15.07
2023-02-11T22:26:21.872Z,14.65
2023-02-11T22:28:52.162Z,14.23
2023-02-11T22:31:22.796Z,15.00
2023-02-11T22:33:51.149Z,13.88
2023-02-11T22:36:21.470Z,15.25
2023-02-11T22:38:49.231Z,14.75
2023-02-11T22:41:18.006Z,14.73
2023-02-11T22:43:46.184Z,14.13
2023-02-11T22:46:17.822Z,14.02
2023-02-11T22:48:45.979Z,15.02
2023-02-11T22:51:16.217Z,13.85
2023-02-11T22:53:44.548Z,14.63
2023-02-11T22:56:15.825Z,14.77
2023-02-11T22:58:44.120Z,14.10
2023-02-11T23:01:12.608Z,14.98
2023-02-11T23:03:42.200Z,14.50
2023-02-11T23:06:12.639Z,14.65
2023-02-11T23:08:42.849Z,14.15
2023-02-11T23:11:13.437Z,14.27
2023-02-11T23:13:42.545Z,14.70
2023-02-11T23:16:12.548Z,14.70
2023-02-11T23:18:43.259Z,14.32
2023-02-11T23:21:13.676Z,14.45
2023-02-11T23:23:41.459Z,13.88
2023-02-11T23:26:11.332Z,14.00
2023-02-11T23:28:39.306Z,14.77
2023-02-11T23:31:14.963Z,14.90
2023-02-11T23:33:44.124Z,16.30
2023-02-11T23:36:12.283Z,20.80
2023-02-11T23:38:40.337Z,23.27
2023-02-11T23:41:08.490Z,18.20
2023-02-11T23:43:36.414Z,19.33
2023-02-11T23:46:04.683Z,19.33
2023-02-11T23:48:32.421Z,17.27
2023-02-11T23:51:01.515Z,17.48
2023-02-11T23:53:29.322Z,24.45
2023-02-11T23:55:57.184Z,27.73
2023-02-11T23:58:25.205Z,29.90
